createdAt,value
2019-01-27T00:00:25.162Z,3.29
2019-01-27T00:02:53.661Z,3.29
2019-01-27T00:05:22.099Z,3.32
2019-01-27T00:07:50.544Z,3.32
2019-01-27T00:10:19.039Z,3.35
2019-01-27T00:12:47.497Z,3.35
2019-01-27T00:15:16.024Z,3.39
2019-01-27T00:17:44.514Z,3.45
2019-01-27T00:20:16.134Z,3.45
2019-01-27T00:22:44.588Z,3.49
2019-01-27T00:25:13.159Z,3.51
2019-01-27T00:27:41.688Z,3.54
2019-01-27T00:30:22.290Z,3.57
2019-01-27T00:32:50.756Z,3.57
2019-01-27T00:35:19.482Z,3.60
2019-01-27T00:37:47.964Z,3.60
2019-01-27T00:40:17.661Z,3.65
2019-01-27T00:42:46.351Z,3.67
2019-01-27T00:45:19.551Z,3.67
2019-01-27T00:47:48.005Z,3.67
2019-01-27T00:50:18.203Z,3.64
2019-01-27T00:52:46.700Z,3.68
2019-01-27T00:55:20.349Z,3.70
2019-01-27T00:57:48.882Z,3.70
2019-01-27T01:00:28.972Z,3.67
2019-01-27T01:02:57.511Z,3.67
2019-01-27T01:05:26.195Z,3.71
2019-01-27T01:07:55.070Z,3.71
2019-01-27T01:10:24.174Z,3.71
2019-01-27T01:12:52.705Z,3.71
2019-01-27T01:15:21.451Z,3.69
2019-01-27T01:17:49.898Z,3.74
2019-01-27T01:20:22.616Z,3.78
2019-01-27T01:22:51.725Z,3.78
2019-01-27T01:25:22.326Z,3.77
2019-01-27T01:27:51.138Z,3.81
2019-01-27T01:30:22.149Z,3.76
2019-01-27T01:32:50.602Z,3.83
2019-01-27T01:35:19.130Z,3.83
2019-01-27T01:37:49.063Z,3.87
2019-01-27T01:40:18.758Z,3.87
2019-01-27T01:42:47.288Z,3.88
2019-01-27T01:45:30.139Z,3.88
2019-01-27T01:47:58.669Z,3.94
2019-01-27T01:50:27.218Z,3.94
2019-01-27T01:52:55.854Z,3.97
2019-01-27T01:55:24.394Z,3.97
2019-01-27T01:57:53.118Z,3.94
2019-01-27T02:00:23.872Z,3.94
2019-01-27T02:02:52.388Z,4.02
2019-01-27T02:05:21.207Z,4.03
2019-01-27T02:07:49.697Z,4.04
2019-01-27T02:10:20.567Z,4.07
2019-01-27T02:12:49.561Z,4.09
2019-01-27T02:15:24.192Z,4.09
2019-01-27T02:17:52.647Z,4.10
2019-01-27T02:20:21.111Z,4.14
2019-01-27T02:22:49.606Z,4.14
2019-01-27T02:25:18.065Z,4.16
2019-01-27T02:27:46.531Z,4.17
2019-01-27T02:30:16.262Z,4.16
2019-01-27T02:32:44.722Z,4.20
2019-01-27T02:35:13.187Z,4.20
2019-01-27T02:37:41.731Z,4.21
2019-01-27T02:40:12.373Z,4.20
2019-01-27T02:42:40.816Z,4.23
2019-01-27T02:45:15.202Z,4.23
2019-01-27T02:47:43.721Z,4.24
2019-01-27T02:50:12.627Z,4.24
2019-01-27T02:52:41.193Z,4.27
2019-01-27T02:55:10.125Z,4.21
2019-01-27T02:57:38.631Z,4.21
2019-01-27T03:00:21.647Z,4.27
2019-01-27T03:02:50.321Z,4.29
2019-01-27T03:05:29.528Z,4.30
2019-01-27T03:07:57.970Z,4.31
2019-01-27T03:10:26.426Z,4.32
2019-01-27T03:12:54.909Z,4.32
2019-01-27T03:15:23.442Z,4.32
2019-01-27T03:17:51.906Z,4.33
2019-01-27T03:20:20.394Z,4.37
2019-01-27T03:22:48.863Z,4.37
2019-01-27T03:25:18.477Z,4.37
2019-01-27T03:27:46.973Z,4.39
2019-01-27T03:30:24.792Z,4.39
2019-01-27T03:32:53.286Z,4.38
2019-01-27T03:35:21.740Z,4.38
2019-01-27T03:37:50.188Z,4.35
2019-01-27T03:40:19.901Z,4.35
2019-01-27T03:42:48.845Z,4.36
2019-01-27T03:45:20.016Z,4.33
2019-01-27T03:47:48.598Z,4.30
2019-01-27T03:50:21.231Z,4.30
2019-01-27T03:52:49.766Z,4.30
2019-01-27T03:55:20.801Z,4.28
2019-01-27T03:57:49.245Z,4.27
2019-01-27T04:00:21.940Z,4.27
2019-01-27T04:02:50.439Z,4.28
2019-01-27T04:05:18.964Z,4.23
2019-01-27T04:07:47.437Z,4.26
2019-01-27T04:10:18.834Z,4.24
2019-01-27T04:12:47.289Z,3.98
2019-01-27T04:15:15.884Z,4.23
2019-01-27T04:17:44.512Z,4.21
2019-01-27T04:20:15.115Z,4.25
2019-01-27T04:22:43.584Z,4.25
2019-01-27T04:25:12.400Z,4.24
2019-01-27T04:27:40.856Z,4.25
2019-01-27T04:30:18.991Z,4.23
2019-01-27T04:32:47.451Z,4.23
2019-01-27T04:35:15.978Z,4.24
2019-01-27T04:37:44.491Z,4.23
2019-01-27T04:40:18.295Z,4.21
2019-01-27T04:42:46.731Z,4.22
2019-01-27T04:45:17.846Z,4.18
2019-01-27T04:47:46.352Z,4.18
2019-01-27T04:50:15.175Z,4.22
2019-01-27T04:52:43.747Z,4.22
2019-01-27T04:55:15.006Z,4.22
2019-01-27T04:57:43.468Z,4.20
2019-01-27T05:00:15.438Z,4.24
2019-01-27T05:02:45.534Z,4.22
2019-01-27T05:05:14.124Z,4.23
2019-01-27T05:07:42.610Z,4.23
2019-01-27T05:10:13.119Z,4.20
2019-01-27T05:12:41.629Z,4.24
2019-01-27T05:15:17.520Z,4.22
2019-01-27T05:17:45.968Z,4.22
2019-01-27T05:20:14.486Z,4.18
2019-01-27T05:22:42.970Z,4.22
2019-01-27T05:25:13.766Z,4.23
2019-01-27T05:27:42.227Z,4.23
2019-01-27T05:30:16.868Z,4.22
2019-01-27T05:32:45.338Z,4.24
2019-01-27T05:35:13.868Z,4.21
2019-01-27T05:37:42.387Z,4.22
2019-01-27T05:40:13.377Z,4.23
2019-01-27T05:42:41.839Z,4.24
2019-01-27T05:45:17.268Z,4.22
2019-01-27T05:47:47.595Z,4.22
2019-01-27T05:50:17.255Z,4.22
2019-01-27T05:52:45.776Z,4.22
2019-01-27T05:55:16.149Z,4.22
2019-01-27T05:57:45.883Z,4.20
2019-01-27T06:00:21.312Z,4.24
2019-01-27T06:02:49.802Z,4.19
2019-01-27T06:05:18.264Z,4.19
2019-01-27T06:07:46.764Z,4.24
2019-01-27T06:10:15.251Z,4.24
2019-01-27T06:12:43.719Z,4.20
2019-01-27T06:15:19.343Z,4.25
2019-01-27T06:17:47.837Z,4.26
2019-01-27T06:20:17.235Z,4.27
2019-01-27T06:22:45.680Z,4.27
2019-01-27T06:25:19.198Z,4.27
2019-01-27T06:27:47.725Z,4.26
2019-01-27T06:30:25.056Z,4.26
2019-01-27T06:33:11.330Z,4.25
2019-01-27T06:35:40.389Z,4.24
2019-01-27T06:38:08.849Z,4.24
2019-01-27T06:40:37.308Z,4.24
2019-01-27T06:43:05.860Z,4.23
2019-01-27T06:45:34.312Z,4.23
2019-01-27T06:48:04.166Z,4.21
2019-01-27T06:50:33.833Z,4.21
2019-01-27T06:53:02.346Z,4.20
2019-01-27T06:55:30.814Z,4.16
2019-01-27T06:57:59.368Z,4.17
2019-01-27T07:00:35.102Z,4.18
2019-01-27T07:03:05.667Z,4.15
2019-01-27T07:05:38.419Z,4.15
2019-01-27T07:08:11.288Z,4.15
2019-01-27T07:10:41.374Z,4.12
2019-01-27T07:13:11.458Z,4.12
2019-01-27T07:15:41.588Z,4.14
2019-01-27T07:21:13.052Z,4.12
2019-01-27T07:23:59.194Z,4.13
2019-01-27T07:26:29.344Z,4.13
2019-01-27T07:29:10.988Z,4.14
2019-01-27T07:31:53.212Z,4.16
2019-01-27T07:34:29.253Z,4.15
2019-01-27T07:37:02.458Z,4.15
2019-01-27T07:39:41.738Z,4.16
2019-01-27T07:42:14.480Z,4.13
2019-01-27T07:44:44.588Z,4.16
2019-01-27T07:47:23.759Z,4.14
2019-01-27T07:49:56.344Z,4.14
2019-01-27T07:52:27.927Z,4.18
2019-01-27T07:54:58.218Z,4.18
2019-01-27T07:57:34.109Z,4.17
2019-01-27T08:00:04.232Z,4.14
2019-01-27T08:02:40.208Z,4.14
2019-01-27T08:05:30.425Z,4.18
2019-01-27T08:08:09.265Z,4.18
2019-01-27T08:10:39.402Z,4.20
2019-01-27T08:13:09.494Z,4.21
2019-01-27T08:15:42.313Z,4.22
2019-01-27T08:18:18.483Z,4.21
2019-01-27T08:20:54.400Z,4.21
2019-01-27T08:23:36.331Z,4.23
2019-01-27T08:26:12.883Z,4.24
2019-01-27T08:28:42.991Z,4.25
2019-01-27T08:31:15.776Z,4.27
2019-01-27T08:33:45.864Z,4.22
2019-01-27T08:36:25.131Z,4.22
2019-01-27T08:39:00.976Z,4.25
2019-01-27T08:41:31.113Z,4.28
2019-01-27T08:44:03.668Z,4.28
2019-01-27T08:46:36.822Z,4.28
2019-01-27T08:49:05.340Z,4.28
2019-01-27T08:51:33.807Z,4.26
2019-01-27T08:54:02.523Z,4.28
2019-01-27T08:56:31.065Z,4.32
2019-01-27T08:58:59.525Z,4.37
2019-01-27T09:01:29.629Z,4.37
2019-01-27T09:03:59.724Z,4.40
2019-01-27T09:06:35.596Z,4.38
2019-01-27T09:09:20.670Z,4.43
2019-01-27T09:11:53.256Z,4.53
2019-01-27T09:14:29.270Z,4.53
2019-01-27T09:17:02.482Z,4.60
2019-01-27T09:19:32.720Z,4.62
2019-01-27T09:22:17.876Z,4.71
2019-01-27T09:24:47.997Z,4.77
2019-01-27T09:27:18.383Z,4.84
2019-01-27T09:29:49.071Z,4.90
2019-01-27T09:32:35.573Z,4.95
2019-01-27T09:35:08.706Z,4.97
2019-01-27T09:37:44.837Z,5.01
2019-01-27T09:40:18.065Z,5.01
2019-01-27T09:42:57.721Z,5.01
2019-01-27T09:45:27.878Z,5.01
2019-01-27T09:48:03.887Z,5.01
2019-01-27T09:50:37.084Z,5.02
2019-01-27T09:53:10.129Z,5.03
2019-01-27T09:55:53.606Z,5.04
2019-01-27T09:58:32.546Z,5.05
2019-01-27T10:01:09.921Z,5.06
2019-01-27T10:03:40.180Z,5.07
2019-01-27T10:06:10.347Z,5.06
2019-01-27T10:08:49.476Z,5.07
2019-01-27T10:11:26.618Z,5.09
2019-01-27T10:14:08.993Z,5.10
2019-01-27T10:16:39.098Z,5.11
2019-01-27T10:19:15.031Z,5.13
2019-01-27T10:21:57.302Z,5.15
2019-01-27T10:24:33.483Z,5.15
2019-01-27T10:27:12.819Z,5.16
2019-01-27T10:30:00.813Z,5.16
2019-01-27T10:32:37.069Z,5.18
2019-01-27T10:35:14.654Z,5.20
2019-01-27T10:37:44.767Z,5.23
2019-01-27T10:40:14.930Z,5.24
2019-01-27T10:42:45.082Z,5.27
2019-01-27T10:45:15.243Z,5.32
2019-01-27T10:47:46.836Z,5.37
2019-01-27T10:50:23.319Z,5.44
2019-01-27T10:52:53.422Z,5.49
2019-01-27T10:55:29.508Z,5.53
2019-01-27T10:58:00.007Z,5.58
2019-01-27T11:00:32.662Z,5.63
2019-01-27T11:03:11.909Z,5.69
2019-01-27T11:05:54.307Z,5.72
2019-01-27T11:08:27.380Z,5.78
2019-01-27T11:11:00.535Z,5.82
2019-01-27T11:13:47.240Z,5.85
2019-01-27T11:16:26.213Z,5.86
2019-01-27T11:18:59.109Z,5.88
2019-01-27T11:21:35.438Z,5.89
2019-01-27T11:24:08.649Z,5.89
2019-01-27T11:26:41.289Z,5.88
2019-01-27T11:29:14.372Z,5.86
2019-01-27T11:31:44.456Z,5.85
2019-01-27T11:34:17.553Z,5.84
2019-01-27T11:36:47.692Z,5.79
2019-01-27T11:39:29.717Z,5.73
2019-01-27T11:42:02.531Z,5.69
2019-01-27T11:44:32.626Z,5.61
2019-01-27T11:47:11.284Z,5.57
2019-01-27T11:49:47.370Z,5.53
2019-01-27T11:52:15.818Z,5.47
2019-01-27T11:54:44.301Z,5.44
2019-01-27T11:57:12.762Z,5.43
2019-01-27T11:59:42.324Z,5.41
2019-01-27T12:02:10.833Z,5.43
2019-01-27T12:04:39.265Z,5.45
2019-01-27T12:07:07.717Z,5.48
2019-01-27T12:09:36.215Z,5.55
2019-01-27T12:12:04.729Z,5.62
2019-01-27T12:14:33.177Z,5.67
2019-01-27T12:17:01.650Z,5.70
2019-01-27T12:19:30.101Z,5.77
2019-01-27T12:21:58.560Z,5.80
2019-01-27T12:24:27.046Z,5.87
2019-01-27T12:26:55.507Z,5.92
2019-01-27T12:29:25.512Z,5.98
2019-01-27T12:31:54.113Z,6.05
2019-01-27T12:34:22.587Z,6.07
2019-01-27T12:36:51.024Z,6.09
2019-01-27T12:39:19.522Z,6.08
2019-01-27T12:41:47.965Z,6.06
2019-01-27T12:44:16.415Z,6.05
2019-01-27T12:46:44.925Z,6.04
2019-01-27T12:49:13.377Z,6.02
2019-01-27T12:51:41.842Z,6.02
2019-01-27T12:54:10.325Z,6.04
2019-01-27T12:56:38.794Z,6.10
2019-01-27T12:59:07.244Z,6.16
2019-01-27T13:01:36.208Z,6.21
2019-01-27T13:04:05.204Z,6.25
2019-01-27T13:06:33.643Z,6.34
2019-01-27T13:09:02.136Z,6.38
2019-01-27T13:11:30.613Z,6.39
2019-01-27T13:13:59.068Z,6.39
2019-01-27T13:16:27.539Z,6.38
2019-01-27T13:18:55.983Z,6.34
2019-01-27T13:21:24.455Z,6.32
2019-01-27T13:23:52.954Z,6.31
2019-01-27T13:26:21.413Z,6.27
2019-01-27T13:28:49.862Z,6.24
2019-01-27T13:31:18.726Z,6.24
2019-01-27T13:33:47.308Z,6.20
2019-01-27T13:36:15.764Z,6.20
2019-01-27T13:38:50.856Z,6.19
2019-01-27T13:41:14.418Z,6.16
2019-01-27T13:43:42.882Z,6.13
2019-01-27T13:46:11.384Z,6.10
2019-01-27T13:48:39.841Z,6.09
2019-01-27T13:51:08.383Z,6.06
2019-01-27T13:53:36.890Z,6.05
2019-01-27T13:56:05.480Z,6.03
2019-01-27T13:58:34.032Z,6.03
2019-01-27T14:01:02.498Z,6.05
2019-01-27T14:03:31.130Z,6.07
2019-01-27T14:05:59.659Z,6.09
2019-01-27T14:08:28.146Z,6.12
2019-01-27T14:10:56.597Z,6.13
2019-01-27T14:13:25.065Z,6.11
2019-01-27T14:15:53.544Z,6.10
2019-01-27T14:18:22.005Z,6.09
2019-01-27T14:20:50.452Z,6.08
2019-01-27T14:23:18.951Z,6.08
2019-01-27T14:25:47.390Z,6.08
2019-01-27T14:28:15.851Z,6.04
2019-01-27T14:30:45.530Z,6.04
2019-01-27T14:33:13.989Z,6.05
2019-01-27T14:35:42.446Z,6.05
2019-01-27T14:38:10.918Z,6.05
2019-01-27T14:40:41.841Z,6.05
2019-01-27T14:43:10.279Z,6.05
2019-01-27T14:45:38.761Z,6.05
2019-01-27T14:48:07.747Z,6.03
2019-01-27T14:50:39.271Z,6.00
2019-01-27T14:53:08.583Z,5.97
2019-01-27T14:55:37.040Z,5.94
2019-01-27T14:58:05.722Z,5.91
2019-01-27T15:00:36.874Z,5.88
2019-01-27T15:03:06.648Z,5.84
2019-01-27T15:05:35.530Z,5.82
2019-01-27T15:08:04.824Z,5.81
2019-01-27T15:10:33.238Z,5.79
2019-01-27T15:13:01.764Z,5.79
2019-01-27T15:15:30.262Z,5.78
2019-01-27T15:17:58.697Z,5.78
2019-01-27T15:20:36.306Z,5.78
2019-01-27T15:23:05.518Z,5.77
2019-01-27T15:25:33.969Z,5.75
2019-01-27T15:28:02.467Z,5.74
2019-01-27T15:30:33.143Z,5.75
2019-01-27T15:33:01.656Z,5.74
2019-01-27T15:35:30.166Z,5.74
2019-01-27T15:37:58.634Z,5.75
2019-01-27T15:40:27.157Z,5.75
2019-01-27T15:42:55.656Z,5.73
2019-01-27T15:45:26.926Z,5.69
2019-01-27T15:47:55.438Z,5.63
2019-01-27T15:50:29.887Z,5.59
2019-01-27T15:52:58.338Z,5.57
2019-01-27T15:55:26.971Z,5.55
2019-01-27T15:57:55.454Z,5.52
2019-01-27T16:00:27.076Z,5.32
2019-01-27T16:02:55.519Z,5.46
2019-01-27T16:05:24.439Z,5.45
2019-01-27T16:07:53.429Z,5.44
2019-01-27T16:10:23.724Z,5.42
2019-01-27T16:12:53.470Z,5.41
2019-01-27T16:15:30.110Z,5.40
2019-01-27T16:17:58.768Z,5.39
2019-01-27T16:20:27.605Z,5.38
2019-01-27T16:23:14.183Z,5.38
2019-01-27T16:25:42.695Z,5.38
2019-01-27T16:28:11.322Z,5.37
2019-01-27T16:30:44.897Z,5.37
2019-01-27T16:33:15.113Z,5.38
2019-01-27T16:35:43.568Z,5.36
2019-01-27T16:38:12.053Z,5.36
2019-01-27T16:40:40.503Z,5.35
2019-01-27T16:43:09.133Z,5.35
2019-01-27T16:45:37.593Z,5.35
2019-01-27T16:48:06.049Z,5.36
2019-01-27T16:50:34.488Z,5.36
2019-01-27T16:53:02.983Z,5.36
2019-01-27T16:55:31.434Z,5.35
2019-01-27T16:57:59.892Z,5.36
2019-01-27T17:00:31.955Z,5.35
2019-01-27T17:03:00.415Z,5.36
2019-01-27T17:05:28.947Z,5.38
2019-01-27T17:07:57.820Z,5.42
2019-01-27T17:10:28.000Z,5.44
2019-01-27T17:12:57.032Z,5.45
2019-01-27T17:15:25.573Z,5.47
2019-01-27T17:17:54.017Z,5.46
2019-01-27T17:20:26.252Z,5.46
2019-01-27T17:22:55.044Z,5.45
2019-01-27T17:25:23.560Z,5.46
2019-01-27T17:27:53.641Z,5.46
2019-01-27T17:30:23.716Z,5.47
2019-01-27T17:32:52.309Z,5.47
2019-01-27T17:35:22.790Z,5.48
2019-01-27T17:37:51.334Z,5.47
2019-01-27T17:40:20.529Z,5.48
2019-01-27T17:42:49.370Z,5.48
2019-01-27T17:45:22.986Z,5.48
2019-01-27T17:47:51.519Z,5.47
2019-01-27T17:50:21.308Z,5.45
2019-01-27T17:52:49.881Z,5.46
2019-01-27T17:55:30.439Z,5.48
2019-01-27T17:58:03.243Z,5.49
2019-01-27T18:00:36.239Z,5.51
2019-01-27T18:03:07.103Z,5.52
2019-01-27T18:05:37.237Z,5.52
2019-01-27T18:08:07.381Z,5.52
2019-01-27T18:10:37.545Z,5.48
2019-01-27T18:13:10.450Z,5.47
2019-01-27T18:15:38.920Z,5.43
2019-01-27T18:18:07.347Z,5.40
2019-01-27T18:20:35.845Z,5.36
2019-01-27T18:23:04.363Z,5.32
2019-01-27T18:25:34.491Z,5.27
2019-01-27T18:28:02.966Z,5.22
2019-01-27T18:30:31.427Z,5.18
2019-01-27T18:32:59.886Z,5.15
2019-01-27T18:35:28.517Z,5.11
2019-01-27T18:37:56.961Z,5.08
2019-01-27T18:40:25.479Z,5.02
2019-01-27T18:42:53.999Z,4.98
2019-01-27T18:45:22.557Z,4.95
2019-01-27T18:47:51.006Z,4.93
2019-01-27T18:50:19.576Z,4.92
2019-01-27T18:52:49.660Z,4.91
2019-01-27T18:55:19.751Z,4.91
2019-01-27T18:57:49.878Z,4.91
2019-01-27T19:00:22.778Z,4.93
2019-01-27T19:02:59.134Z,4.96
2019-01-27T19:05:29.235Z,4.98
2019-01-27T19:08:07.880Z,5.00
2019-01-27T19:10:43.804Z,5.01
2019-01-27T19:13:20.504Z,5.04
2019-01-27T19:16:06.749Z,5.07
2019-01-27T19:18:53.164Z,5.09
2019-01-27T19:21:39.643Z,5.09
2019-01-27T19:24:09.788Z,5.10
2019-01-27T19:26:54.926Z,5.11
2019-01-27T19:29:31.206Z,5.10
2019-01-27T19:32:04.272Z,5.10
2019-01-27T19:34:40.393Z,5.10
2019-01-27T19:37:22.816Z,5.09
2019-01-27T19:40:05.273Z,5.07
2019-01-27T19:42:44.134Z,5.06
2019-01-27T19:45:17.347Z,5.04
2019-01-27T19:47:47.460Z,5.02
2019-01-27T19:50:34.216Z,5.00
2019-01-27T19:53:07.233Z,4.98
2019-01-27T19:55:49.567Z,4.95
2019-01-27T19:58:28.320Z,4.91
2019-01-27T20:01:01.342Z,4.90
2019-01-27T20:03:31.444Z,4.87
2019-01-27T20:06:10.379Z,4.87
2019-01-27T20:08:43.220Z,4.87
2019-01-27T20:11:16.336Z,4.89
2019-01-27T20:13:52.217Z,4.91
2019-01-27T20:16:22.712Z,4.92
2019-01-27T20:19:01.452Z,4.96
2019-01-27T20:21:53.414Z,4.97
2019-01-27T20:24:19.701Z,5.00
2019-01-27T20:26:49.783Z,5.04
2019-01-27T20:29:35.204Z,5.07
2019-01-27T20:32:08.209Z,5.09
2019-01-27T20:34:44.201Z,5.11
2019-01-27T20:37:14.345Z,5.13
2019-01-27T20:39:53.568Z,5.17
2019-01-27T20:42:35.917Z,5.19
2019-01-27T20:45:11.725Z,5.20
2019-01-27T20:47:50.787Z,5.21
2019-01-27T20:50:20.883Z,5.19
2019-01-27T20:53:00.032Z,5.19
2019-01-27T20:55:30.235Z,5.21
2019-01-27T20:58:03.216Z,5.21
2019-01-27T21:00:33.309Z,5.23
2019-01-27T21:03:06.167Z,5.23
2019-01-27T21:05:42.088Z,5.24
2019-01-27T21:08:18.054Z,5.26
2019-01-27T21:11:04.616Z,5.26
2019-01-27T21:13:37.145Z,5.27
2019-01-27T21:16:07.608Z,5.27
2019-01-27T21:18:37.841Z,5.29
2019-01-27T21:21:06.491Z,5.31
2019-01-27T21:23:34.931Z,5.32
2019-01-27T21:26:03.519Z,5.33
2019-01-27T21:28:32.001Z,5.33
2019-01-27T21:31:00.440Z,5.34
2019-01-27T21:33:28.907Z,5.34
2019-01-27T21:35:57.393Z,5.33
2019-01-27T21:38:25.838Z,5.34
2019-01-27T21:40:54.276Z,5.33
2019-01-27T21:43:22.773Z,5.32
2019-01-27T21:45:51.223Z,5.32
2019-01-27T21:48:19.658Z,5.32
2019-01-27T21:50:48.128Z,5.32
2019-01-27T21:53:16.587Z,5.29
2019-01-27T21:55:45.189Z,5.28
2019-01-27T21:58:13.678Z,5.29
2019-01-27T22:00:42.140Z,5.27
2019-01-27T22:03:10.584Z,5.27
2019-01-27T22:05:39.073Z,5.28
2019-01-27T22:08:07.524Z,5.27
2019-01-27T22:10:35.981Z,5.27
2019-01-27T22:13:04.529Z,5.30
2019-01-27T22:15:32.978Z,5.30
2019-01-27T22:18:01.426Z,5.31
2019-01-27T22:20:30.184Z,5.33
2019-01-27T22:22:58.633Z,5.35
2019-01-27T22:25:27.072Z,5.37
2019-01-27T22:27:55.555Z,5.38
2019-01-27T22:30:24.060Z,5.38
2019-01-27T22:32:52.508Z,5.39
2019-01-27T22:35:21.006Z,5.39
2019-01-27T22:37:49.529Z,5.38
2019-01-27T22:40:18.052Z,5.37
2019-01-27T22:42:46.533Z,5.38
2019-01-27T22:45:16.263Z,5.37
2019-01-27T22:47:44.796Z,5.35
2019-01-27T22:50:15.913Z,5.32
2019-01-27T22:52:44.354Z,5.31
2019-01-27T22:55:13.175Z,5.30
2019-01-27T22:57:41.660Z,5.29
2019-01-27T23:00:23.774Z,5.29
2019-01-27T23:02:52.235Z,5.28
2019-01-27T23:05:20.687Z,5.29
2019-01-27T23:07:49.139Z,5.29
2019-01-27T23:10:17.786Z,5.29
2019-01-27T23:12:46.244Z,5.30
2019-01-27T23:15:14.754Z,5.30
2019-01-27T23:17:43.227Z,5.29
2019-01-27T23:20:11.735Z,5.30
2019-01-27T23:22:40.298Z,5.30
2019-01-27T23:25:08.788Z,5.29
2019-01-27T23:27:37.222Z,5.28
2019-01-27T23:30:07.923Z,5.28
2019-01-27T23:32:36.419Z,5.28
2019-01-27T23:35:06.607Z,5.29
2019-01-27T23:37:35.051Z,5.29
2019-01-27T23:40:05.051Z,5.30
2019-01-27T23:42:33.509Z,5.29
2019-01-27T23:45:01.959Z,5.30
2019-01-27T23:47:30.459Z,5.30
2019-01-27T23:49:58.921Z,5.30
2019-01-27T23:52:27.383Z,5.31
2019-01-27T23:54:55.854Z,5.31
2019-01-27T23:57:24.312Z,5.30
2019-01-27T23:59:52.763Z,5.32
